Pagrindinis puslapis
METAR-TAF:

METAR-TAF

Oro uostai :

Pnompenis, Kambodža

platuma: 11-33N, ilguma: 104-51E, Aukštis: 10 m

Dabartinis oras

Ataskaita buvo paskelbta 32 minutes, ne 15:00 UTC
Vėjas 5 kt iš Vakarų/Pietvakarių, svyruoja nuo Pietvakarių ir Vakarų
Temperatūra 29°C
Drėgmė 70%
Slėgis 1010 hPa
Matomumas: 9000 m
Išsisklaidę debesys ne aukštis 1500 ft
Išsisklaidę debesys ne aukštis 4000 ft

METAR: VDPP 171500Z 25005KT 220V280 9000 SCT015 SCT040 29/23 Q1010

Laikas: 22:32 (15:32 UTC)

Prognozė

Ataskaita buvo paskelbta 4 valandos ir 32 minutes, ne 11:00 UTC
Prognozė galioja nuo 17 metu 12 UTC su 18 metu 06 UTC
Vėjas 8 kt iš Pietvakarių
Matomumas 10 km arba daugiau
Išsisklaidę debesys ne aukštis 1700 ft
Išsisklaidę debesys ne aukštis 4000 ft

TAF: VDPP 171100Z 1712/1806 23008KT 9999 SCT017 SCT040

Orai ataskaitas ir orų prognozės (METAR, TAF).

turimą stotys yra geltonos ir raudonos taškus žemėlapyje.

Perkelti pele per norėdami pamatyti stoties vardą.

Tada spustelėkite, norėdami matyti oro stebėjimo ir prognozės.

Norėdami pakeisti žemėlapį: spustelėkite ant žalios mygtukų su juodo kryžiaus žemyn,; žalią mygtuką su brūkšneliu, jei norite nutolinti; arba žalių rodyklių gretimoms žemėlapius.


METAR-TAF: